• Join FlightAware (Why Join?)
  • Login
  • US Flag 
01:46AM EST


 

Airport Tracker/Info


-or-


 

Live Flight TrackerFlight Track Log ✈ DAL3606 ✈ 22-Jun-2013 ✈ KMSP - KCWA

Flight Track Log - Related Links

Times and Time Zones

All times are in EDT time to prevent confusion due to time zone crossing. See the DAL3606 flight status page for this flight to view local times or setup timezone preferences in your user account.

Time Position Orientation Groundspeed Altitude Reporting Facility
EDT Latitude Longitude Course Direction KTS MPH feet Rate Location/Type
03:32PM 44.8667 -93.1833 65° Northeast 158 182 1,800  Level Minneapolis TRACON
03:33PM 44.8639 -93.1183 93° East 182 209 3,000 1,620 Climbing Minneapolis Center
03:34PM 44.8842 -93.0433 69° East 245 282 5,000 1,800 Climbing Minneapolis Center
03:35PM 44.9776 -92.8300 69° East  Level FlightAware Approximate
03:35PM 44.9542 -92.9989 24° Northeast 283 326 6,800  Level Minneapolis Center
03:36PM 45.0125 -92.6992 69° East  Level FlightAware Approximate
03:36PM 45.0475 -92.9444 22° Northeast 304 350 8,800  Level Minneapolis Center
03:37PM 45.0514 -92.5708 66° East  Level FlightAware Approximate
03:37PM 45.0931 -92.8375 59° Northeast 317 365 11,000  Level Minneapolis Center
03:38PM 45.0913 -92.4428 65° Northeast  Level FlightAware Approximate
03:38PM 45.1408 -92.7133 61° Northeast 364 419 12,100  Level Minneapolis Center
03:39PM 45.1844 -92.5739 66° East 390 449 13,400 1,320 Climbing Minneapolis Center
03:40PM 45.2042 -92.4189 80° East 399 459 14,900 1,440 Climbing Minneapolis Center
03:41PM 45.2203 -92.2625 82° East 401 461 16,400 1,200 Climbing Minneapolis Center
03:43PM 45.1942 -92.1078 103° East 406 467 17,400 840 Climbing Minneapolis Center
03:44PM 45.1739 -91.9819 103° East 408 470 18,200 780 Climbing Minneapolis Center
03:45PM 45.1372 -91.7608 103° East 412 474 19,000 360 Climbing Minneapolis Center
03:46PM 45.1114 -91.5978 103° East 420 483 19,000  Level Minneapolis Center
03:47PM 45.0839 -91.4372 104° East 421 484 19,000 -180 Level Minneapolis Center
03:48PM 45.0561 -91.2772 104° East 421 484 18,700 -840 Descending Minneapolis Center
03:49PM 45.0300 -91.1231 103° East 416 479 17,400 -1,140 Descending Minneapolis Center
03:50PM 45.0006 -90.9772 106° East 401 461 16,400 -1,020 Descending Minneapolis Center
03:51PM 44.9725 -90.8344 105° East 388 447 15,400 -1,080 Descending Minneapolis Center
03:52PM 44.9383 -90.6603 105° East 385 443 14,200 -1,080 Descending Minneapolis Center
03:53PM 44.9086 -90.5156 106° East 386 444 13,200 -1,620 Descending Minneapolis Center
03:54PM 44.8789 -90.3664 106° East 381 438 10,900 -1,740 Descending Minneapolis Center
03:55PM 44.8564 -90.2622 107° East 295 339 9,400 -1,560 Descending Minneapolis Center
03:56PM 44.8272 -90.1269 107° East 279 321 7,400 -1,860 Descending Minneapolis Center
03:57PM 44.8047 -90.0236 107° East 282 325 5,600 -1,800 Descending Minneapolis Center